createdAt,value
2018-02-25T00:01:49.720Z,92.20
2018-02-25T00:04:27.716Z,91.90
2018-02-25T00:06:59.696Z,92.00
2018-02-25T00:09:33.584Z,92.10
2018-02-25T00:12:01.595Z,92.00
2018-02-25T00:14:31.399Z,92.00
2018-02-25T00:17:02.138Z,91.90
2018-02-25T00:19:31.911Z,92.30
2018-02-25T00:22:01.943Z,92.30
2018-02-25T00:24:30.856Z,92.90
2018-02-25T00:27:05.308Z,93.00
2018-02-25T00:29:33.347Z,93.40
2018-02-25T00:32:16.184Z,93.40
2018-02-25T00:34:51.063Z,93.90
2018-02-25T00:37:19.985Z,93.90
2018-02-25T00:39:49.815Z,94.90
2018-02-25T00:42:24.668Z,94.90
2018-02-25T00:44:54.763Z,94.80
2018-02-25T00:47:29.142Z,95.20
2018-02-25T00:49:58.071Z,95.20
2018-02-25T00:52:27.011Z,95.60
2018-02-25T00:55:01.191Z,96.40
2018-02-25T00:57:31.135Z,96.00
2018-02-25T01:00:00.135Z,95.20
2018-02-25T01:02:39.368Z,94.60
2018-02-25T01:05:08.363Z,93.20
2018-02-25T01:07:38.403Z,91.30
2018-02-25T01:10:06.419Z,90.30
2018-02-25T01:12:40.327Z,89.20
2018-02-25T01:15:09.347Z,89.70
2018-02-25T01:17:37.363Z,89.80
2018-02-25T01:20:11.414Z,88.60
2018-02-25T01:22:39.459Z,89.40
2018-02-25T01:25:13.003Z,89.00
2018-02-25T01:27:44.579Z,89.10
2018-02-25T01:30:14.371Z,88.20
2018-02-25T01:32:42.410Z,88.10
2018-02-25T01:35:11.407Z,88.00
2018-02-25T01:37:52.163Z,88.40
2018-02-25T01:40:34.534Z,88.30
2018-02-25T01:43:08.770Z,86.20
2018-02-25T01:45:38.728Z,86.00
2018-02-25T01:48:10.174Z,86.90
2018-02-25T01:50:50.378Z,87.50
2018-02-25T01:53:21.487Z,88.30
2018-02-25T01:55:54.243Z,89.10
2018-02-25T01:58:39.571Z,89.40
2018-02-25T02:01:07.608Z,89.90
2018-02-25T02:03:35.623Z,90.10
2018-02-25T02:06:12.362Z,90.30
2018-02-25T02:08:47.959Z,91.20
2018-02-25T02:11:17.923Z,90.90
2018-02-25T02:13:46.883Z,90.50
2018-02-25T02:16:20.411Z,90.20
2018-02-25T02:19:00.599Z,90.80
2018-02-25T02:21:31.694Z,90.70
2018-02-25T02:24:00.683Z,90.80
2018-02-25T02:26:32.331Z,90.70
2018-02-25T02:29:00.347Z,90.80
2018-02-25T02:31:33.719Z,91.00
2018-02-25T02:34:01.750Z,90.90
2018-02-25T02:36:39.857Z,90.90
2018-02-25T02:39:12.924Z,90.90
2018-02-25T02:41:44.732Z,90.70
2018-02-25T02:44:20.148Z,90.90
2018-02-25T02:46:56.227Z,90.80
2018-02-25T02:49:35.674Z,90.70
2018-02-25T02:52:06.738Z,90.40
2018-02-25T02:54:48.139Z,90.80
2018-02-25T02:57:23.188Z,90.80
2018-02-25T02:59:51.191Z,91.00
2018-02-25T03:02:19.260Z,91.20
2018-02-25T03:04:48.270Z,91.10
2018-02-25T03:07:36.110Z,91.10
2018-02-25T03:10:17.121Z,91.10
2018-02-25T03:12:51.351Z,91.10
2018-02-25T03:15:21.294Z,90.80
2018-02-25T03:17:49.323Z,90.70
2018-02-25T03:20:19.250Z,90.90
2018-02-25T03:22:52.938Z,91.40
2018-02-25T03:25:24.072Z,91.30
2018-02-25T03:27:52.039Z,91.40
2018-02-25T03:30:24.346Z,91.40
2018-02-25T03:32:52.370Z,91.40
2018-02-25T03:35:20.378Z,91.50
2018-02-25T03:37:58.466Z,92.00
2018-02-25T03:40:29.431Z,92.00
2018-02-25T03:42:59.480Z,92.30
2018-02-25T03:45:47.527Z,92.40
2018-02-25T03:48:21.814Z,92.80
2018-02-25T03:50:55.622Z,92.90
2018-02-25T03:53:27.287Z,93.00
2018-02-25T03:55:56.238Z,93.30
2018-02-25T03:58:26.175Z,93.30
2018-02-25T04:01:00.306Z,93.10
2018-02-25T04:03:33.387Z,93.00
2018-02-25T04:06:02.323Z,93.00
2018-02-25T04:08:36.846Z,93.00
2018-02-25T04:11:15.771Z,92.80
2018-02-25T04:13:44.694Z,92.80
2018-02-25T04:16:16.562Z,92.90
2018-02-25T04:18:49.098Z,93.00
2018-02-25T04:21:18.838Z,93.70
2018-02-25T04:23:59.889Z,93.70
2018-02-25T04:26:29.807Z,93.60
2018-02-25T04:28:59.722Z,93.60
2018-02-25T04:31:32.738Z,93.90
2018-02-25T04:34:00.787Z,93.80
2018-02-25T04:36:33.278Z,94.10
2018-02-25T04:39:01.379Z,94.20
2018-02-25T04:41:33.838Z,94.10
2018-02-25T04:44:01.898Z,94.10
2018-02-25T04:46:36.058Z,94.10
2018-02-25T04:49:18.806Z,94.50
2018-02-25T04:51:46.834Z,94.30
2018-02-25T04:54:18.052Z,94.40
2018-02-25T04:56:47.954Z,94.40
2018-02-25T04:59:15.990Z,94.50
2018-02-25T05:01:44.051Z,94.30
2018-02-25T05:04:12.117Z,94.20
2018-02-25T05:06:40.174Z,94.50
2018-02-25T05:09:08.974Z,95.10
2018-02-25T05:11:38.025Z,95.00
2018-02-25T05:14:10.090Z,95.10
2018-02-25T05:16:43.662Z,95.50
2018-02-25T05:19:11.698Z,95.50
2018-02-25T05:21:40.654Z,95.60
2018-02-25T05:24:09.654Z,95.50
2018-02-25T05:26:42.229Z,95.90
2018-02-25T05:29:11.034Z,96.60
2018-02-25T05:31:47.227Z,96.60
2018-02-25T05:34:32.434Z,97.20
2018-02-25T05:37:00.438Z,97.10
2018-02-25T05:39:30.463Z,97.00
2018-02-25T05:42:00.462Z,96.60
2018-02-25T05:44:29.254Z,96.80
2018-02-25T05:46:58.226Z,96.70
2018-02-25T05:49:27.086Z,97.70
2018-02-25T05:51:59.835Z,97.60
2018-02-25T05:54:31.742Z,97.50
2018-02-25T05:56:59.766Z,97.50
2018-02-25T05:59:27.789Z,97.30
2018-02-25T06:01:56.714Z,97.30
2018-02-25T06:04:24.742Z,97.20
2018-02-25T06:06:56.693Z,97.20
2018-02-25T06:09:25.618Z,97.50
2018-02-25T06:11:54.406Z,97.20
2018-02-25T06:14:28.292Z,97.30
2018-02-25T06:16:57.269Z,97.30
2018-02-25T06:19:25.326Z,97.10
2018-02-25T06:21:54.122Z,96.90
2018-02-25T06:24:22.146Z,96.90
2018-02-25T06:26:59.785Z,96.50
2018-02-25T06:29:27.814Z,96.20
2018-02-25T06:32:01.054Z,96.10
2018-02-25T06:34:29.990Z,96.00
2018-02-25T06:36:58.009Z,96.00
2018-02-25T06:39:28.022Z,95.80
2018-02-25T06:41:57.925Z,95.60
2018-02-25T06:44:27.833Z,95.40
2018-02-25T06:46:55.857Z,95.40
2018-02-25T06:49:26.553Z,94.60
2018-02-25T06:51:58.121Z,94.60
2018-02-25T06:54:27.013Z,94.40
2018-02-25T06:56:55.027Z,94.30
2018-02-25T06:59:23.037Z,94.20
2018-02-25T07:01:51.046Z,93.90
2018-02-25T07:04:19.833Z,93.50
2018-02-25T07:06:48.614Z,93.60
2018-02-25T07:09:25.411Z,93.20
2018-02-25T07:11:55.929Z,93.20
2018-02-25T07:14:25.921Z,93.00
2018-02-25T07:17:04.669Z,91.10
2018-02-25T07:19:56.962Z,86.50
2018-02-25T07:22:24.965Z,86.40
2018-02-25T07:24:53.765Z,85.70
2018-02-25T07:27:27.413Z,85.50
2018-02-25T07:29:56.413Z,84.30
2018-02-25T07:32:29.389Z,84.20
2018-02-25T07:35:00.790Z,83.40
2018-02-25T07:37:30.749Z,83.00
2018-02-25T07:39:59.729Z,79.50
2018-02-25T07:42:33.791Z,78.90
2018-02-25T07:45:02.740Z,77.30
2018-02-25T07:47:37.397Z,78.90
2018-02-25T07:50:23.733Z,78.80
2018-02-25T07:53:04.578Z,77.30
2018-02-25T07:55:33.397Z,73.40
2018-02-25T07:58:03.369Z,73.40
2018-02-25T08:00:33.401Z,68.80
2018-02-25T08:03:11.870Z,68.80
2018-02-25T08:05:49.747Z,68.80
2018-02-25T08:08:24.363Z,64.60
2018-02-25T08:10:52.377Z,60.70
2018-02-25T08:13:20.613Z,61.00
2018-02-25T08:15:50.349Z,53.70
2018-02-25T08:18:19.414Z,53.20
2018-02-25T08:20:47.429Z,53.10
2018-02-25T08:23:15.486Z,52.00
2018-02-25T08:25:43.497Z,51.90
2018-02-25T08:28:13.180Z,46.60
2018-02-25T08:30:41.193Z,46.70
2018-02-25T08:33:10.145Z,46.30
2018-02-25T08:35:40.050Z,44.70
2018-02-25T08:38:11.376Z,46.10
2018-02-25T08:40:42.447Z,41.90
2018-02-25T08:43:11.370Z,43.60
2018-02-25T08:45:39.401Z,43.50
2018-02-25T08:48:07.457Z,42.90
2018-02-25T08:50:36.349Z,42.10
2018-02-25T08:53:04.365Z,40.10
2018-02-25T08:55:32.396Z,39.60
2018-02-25T08:58:00.417Z,40.50
2018-02-25T09:00:30.373Z,40.70
2018-02-25T09:02:58.381Z,37.90
2018-02-25T09:05:27.228Z,35.40
2018-02-25T09:07:57.133Z,35.40
2018-02-25T09:10:28.693Z,36.00
2018-02-25T09:12:56.712Z,38.50
2018-02-25T09:15:24.744Z,39.80
2018-02-25T09:17:57.928Z,38.10
2018-02-25T09:20:32.316Z,34.90
2018-02-25T09:23:01.218Z,33.40
2018-02-25T09:25:29.228Z,32.60
2018-02-25T09:27:57.228Z,31.70
2018-02-25T09:30:26.124Z,30.60
2018-02-25T09:32:54.153Z,31.10
2018-02-25T09:35:23.053Z,30.80
2018-02-25T09:37:57.532Z,29.10
2018-02-25T09:40:25.537Z,29.10
2018-02-25T09:42:53.553Z,29.00
2018-02-25T09:45:22.464Z,30.10
2018-02-25T09:47:50.477Z,32.30
2018-02-25T09:50:19.252Z,30.10
2018-02-25T09:52:48.214Z,30.10
2018-02-25T09:55:18.129Z,28.50
2018-02-25T09:57:46.136Z,27.00
2018-02-25T10:00:15.133Z,28.70
2018-02-25T10:02:44.943Z,27.40
2018-02-25T10:05:13.264Z,27.40
2018-02-25T10:07:41.264Z,25.90
2018-02-25T10:10:12.601Z,26.70
2018-02-25T10:12:40.624Z,24.90
2018-02-25T10:15:10.284Z,26.00
2018-02-25T10:17:38.297Z,26.00
2018-02-25T10:20:06.308Z,26.50
2018-02-25T10:22:35.297Z,26.90
2018-02-25T10:25:05.319Z,25.80
2018-02-25T10:27:33.337Z,24.50
2018-02-25T10:30:03.116Z,26.20
2018-02-25T10:32:32.016Z,26.10
2018-02-25T10:35:00.027Z,25.50
2018-02-25T10:37:30.718Z,24.30
2018-02-25T10:39:58.720Z,24.20
2018-02-25T10:42:26.771Z,23.70
2018-02-25T10:44:55.544Z,22.50
2018-02-25T10:47:26.668Z,22.40
2018-02-25T10:49:54.680Z,21.50
2018-02-25T10:52:25.408Z,22.50
2018-02-25T10:54:59.345Z,23.90
2018-02-25T10:57:28.280Z,23.90
2018-02-25T10:59:56.284Z,23.90
2018-02-25T11:02:24.292Z,22.90
2018-02-25T11:04:52.300Z,21.40
2018-02-25T11:07:26.984Z,20.10
2018-02-25T11:10:00.153Z,22.60
2018-02-25T11:12:32.755Z,22.80
2018-02-25T11:15:00.783Z,21.70
2018-02-25T11:17:31.599Z,21.60
2018-02-25T11:19:59.604Z,21.60
2018-02-25T11:22:27.612Z,20.70
2018-02-25T11:24:55.632Z,21.00
2018-02-25T11:27:23.656Z,20.80
2018-02-25T11:29:51.656Z,20.30
2018-02-25T11:32:21.339Z,19.80
2018-02-25T11:34:53.935Z,19.80
2018-02-25T11:37:22.020Z,19.00
2018-02-25T11:39:51.724Z,20.10
2018-02-25T11:42:23.542Z,21.20
2018-02-25T11:44:52.092Z,21.10
2018-02-25T11:47:23.304Z,21.00
2018-02-25T11:49:51.592Z,21.00
2018-02-25T11:52:20.044Z,19.20
2018-02-25T11:54:48.467Z,19.10
2018-02-25T11:57:16.708Z,18.90
2018-02-25T11:59:45.136Z,16.90
2018-02-25T12:02:13.404Z,16.10
2018-02-25T12:04:41.466Z,17.20
2018-02-25T12:07:10.883Z,19.50
2018-02-25T12:09:38.908Z,18.20
2018-02-25T12:12:08.223Z,17.90
2018-02-25T12:14:37.980Z,16.70
2018-02-25T12:17:06.020Z,16.70
2018-02-25T12:19:34.016Z,15.30
2018-02-25T12:22:02.944Z,16.60
2018-02-25T12:24:31.777Z,17.10
2018-02-25T12:27:01.160Z,18.30
2018-02-25T12:29:30.934Z,18.40
2018-02-25T12:31:58.940Z,18.40
2018-02-25T12:34:26.947Z,17.10
2018-02-25T12:36:54.976Z,16.60
2018-02-25T12:39:27.088Z,17.00
2018-02-25T12:41:55.098Z,17.60
2018-02-25T12:44:24.864Z,16.60
2018-02-25T12:46:52.879Z,16.50
2018-02-25T12:49:34.415Z,14.50
2018-02-25T12:52:02.435Z,14.50
2018-02-25T12:54:31.208Z,17.00
2018-02-25T12:56:59.223Z,17.00
2018-02-25T12:59:29.175Z,16.50
2018-02-25T13:01:58.068Z,15.80
2018-02-25T13:04:26.971Z,15.40
2018-02-25T13:06:55.879Z,14.50
2018-02-25T13:09:24.664Z,14.10
2018-02-25T13:11:57.400Z,15.90
2018-02-25T13:14:29.272Z,15.90
2018-02-25T13:16:59.164Z,15.00
2018-02-25T13:19:29.079Z,14.80
2018-02-25T13:21:57.086Z,15.50
2018-02-25T13:24:27.105Z,17.00
2018-02-25T13:26:57.855Z,14.30
2018-02-25T13:29:27.611Z,13.60
2018-02-25T13:31:55.647Z,13.60
2018-02-25T13:34:23.700Z,14.10
2018-02-25T13:36:51.664Z,13.30
2018-02-25T13:39:25.019Z,14.60
2018-02-25T13:41:53.019Z,14.50
2018-02-25T13:44:21.043Z,14.70
2018-02-25T13:46:49.039Z,14.90
2018-02-25T13:49:18.019Z,16.30
2018-02-25T13:51:46.023Z,18.30
2018-02-25T13:54:14.024Z,16.80
2018-02-25T13:56:42.944Z,16.30
2018-02-25T13:59:10.951Z,15.80
2018-02-25T14:01:43.391Z,14.40
2018-02-25T14:04:11.399Z,15.00
2018-02-25T14:06:47.715Z,15.00
2018-02-25T14:09:15.715Z,15.80
2018-02-25T14:11:45.615Z,15.60
2018-02-25T14:14:14.600Z,15.50
2018-02-25T14:16:42.607Z,15.40
2018-02-25T14:19:15.487Z,14.80
2018-02-25T14:21:44.259Z,15.00
2018-02-25T14:24:22.975Z,14.90
2018-02-25T14:26:55.940Z,14.30
2018-02-25T14:29:24.956Z,14.70
2018-02-25T14:31:54.943Z,15.70
2018-02-25T14:34:22.939Z,15.70
2018-02-25T14:36:57.723Z,15.70
2018-02-25T14:39:27.459Z,14.90
2018-02-25T14:41:55.503Z,14.70
2018-02-25T14:44:26.871Z,13.80
2018-02-25T14:46:56.831Z,14.50
2018-02-25T14:49:24.871Z,15.50
2018-02-25T14:51:58.174Z,15.00
2018-02-25T14:54:39.304Z,15.90
2018-02-25T14:57:14.759Z,15.80
2018-02-25T14:59:44.511Z,15.60
2018-02-25T15:02:13.523Z,15.60
2018-02-25T15:04:42.291Z,15.80
2018-02-25T15:07:12.916Z,16.80
2018-02-25T15:09:42.813Z,16.80
2018-02-25T15:12:18.943Z,16.50
2018-02-25T15:14:47.641Z,16.10
2018-02-25T15:17:22.079Z,15.80
2018-02-25T15:19:50.087Z,15.60
2018-02-25T15:22:18.867Z,15.90
2018-02-25T15:24:47.788Z,15.90
2018-02-25T15:27:23.271Z,15.60
2018-02-25T15:29:57.791Z,16.30
2018-02-25T15:32:33.343Z,15.90
2018-02-25T15:35:02.446Z,15.90
2018-02-25T15:37:31.450Z,16.10
2018-02-25T15:40:05.135Z,16.70
2018-02-25T15:42:33.135Z,17.50
2018-02-25T15:45:01.943Z,17.60
2018-02-25T15:47:31.887Z,17.60
2018-02-25T15:49:59.899Z,17.00
2018-02-25T15:52:29.883Z,16.80
2018-02-25T15:55:02.461Z,16.80
2018-02-25T15:57:32.422Z,16.90
2018-02-25T16:00:03.107Z,17.40
2018-02-25T16:02:31.112Z,17.40
2018-02-25T16:04:59.875Z,17.10
2018-02-25T16:07:29.871Z,17.30
2018-02-25T16:09:57.871Z,17.50
2018-02-25T16:12:26.775Z,17.40
2018-02-25T16:14:58.459Z,18.20
2018-02-25T16:17:26.480Z,18.20
2018-02-25T16:19:54.507Z,17.80
2018-02-25T16:22:27.006Z,19.00
2018-02-25T16:24:55.934Z,18.50
2018-02-25T16:27:24.691Z,19.80
2018-02-25T16:29:57.167Z,19.80
2018-02-25T16:32:29.007Z,20.00
2018-02-25T16:34:58.027Z,20.70
2018-02-25T16:37:29.562Z,20.90
2018-02-25T16:39:57.587Z,21.10
2018-02-25T16:42:28.247Z,22.60
2018-02-25T16:44:57.018Z,22.90
2018-02-25T16:47:25.035Z,22.80
2018-02-25T16:49:53.042Z,23.80
2018-02-25T16:52:21.823Z,25.30
2018-02-25T16:54:51.603Z,26.00
2018-02-25T16:57:19.622Z,26.10
2018-02-25T17:02:09.595Z,26.90
2018-02-25T17:04:43.263Z,27.60
2018-02-25T17:07:11.271Z,27.60
2018-02-25T17:09:41.066Z,28.20
2018-02-25T17:12:10.034Z,28.20
2018-02-25T17:14:42.598Z,28.20
2018-02-25T17:17:10.599Z,28.40
2018-02-25T17:19:38.602Z,28.80
2018-02-25T17:22:07.502Z,29.10
2018-02-25T17:24:37.451Z,29.30
2018-02-25T17:27:10.282Z,29.50
2018-02-25T17:29:40.035Z,30.30
2018-02-25T17:32:08.043Z,30.30
2018-02-25T17:34:45.058Z,31.20
2018-02-25T17:37:14.995Z,31.10
2018-02-25T17:39:43.980Z,31.50
2018-02-25T17:42:12.751Z,32.30
2018-02-25T17:44:56.519Z,32.70
2018-02-25T17:47:26.570Z,32.70
2018-02-25T17:49:55.522Z,33.10
2018-02-25T17:52:27.183Z,33.30
2018-02-25T17:54:55.214Z,34.00
2018-02-25T17:57:23.215Z,34.60
2018-02-25T17:59:51.630Z,35.00
2018-02-25T18:02:19.634Z,35.70
2018-02-25T18:04:53.984Z,36.40
2018-02-25T18:07:26.954Z,36.80
2018-02-25T18:09:56.882Z,38.00
2018-02-25T18:12:25.883Z,38.00
2018-02-25T18:14:53.890Z,38.50
2018-02-25T18:17:22.674Z,40.20
2018-02-25T18:19:52.352Z,41.40
2018-02-25T18:22:20.390Z,40.90
2018-02-25T18:24:50.158Z,42.60
2018-02-25T18:27:19.131Z,42.50
2018-02-25T18:29:47.142Z,42.90
2018-02-25T18:32:17.090Z,44.00
2018-02-25T18:34:45.134Z,43.90
2018-02-25T18:37:14.062Z,44.60
2018-02-25T18:39:45.329Z,44.70
2018-02-25T18:42:13.355Z,45.40
2018-02-25T18:44:56.227Z,46.00
2018-02-25T18:47:26.943Z,48.80
2018-02-25T18:49:59.223Z,48.70
2018-02-25T18:52:27.438Z,49.10
2018-02-25T18:54:57.430Z,49.50
2018-02-25T18:57:27.098Z,50.50
2018-02-25T18:59:57.199Z,50.50
2018-02-25T19:02:26.206Z,50.50
2018-02-25T19:04:58.686Z,51.10
2018-02-25T19:07:27.678Z,51.30
2018-02-25T19:09:55.694Z,52.00
2018-02-25T19:15:18.250Z,53.00
2018-02-25T19:17:52.118Z,53.70
2018-02-25T19:20:20.138Z,53.60
2018-02-25T19:22:48.142Z,53.10
2018-02-25T19:25:33.618Z,53.10
2018-02-25T19:28:01.627Z,53.50
2018-02-25T19:30:30.406Z,54.40
2018-02-25T19:33:03.374Z,54.20
2018-02-25T19:35:37.914Z,54.20
2018-02-25T19:38:11.706Z,54.30
2018-02-25T19:40:48.434Z,54.80
2018-02-25T19:43:16.482Z,54.70
2018-02-25T19:45:49.224Z,55.50
2018-02-25T19:48:17.247Z,55.60
2018-02-25T19:50:45.266Z,54.90
2018-02-25T19:53:14.258Z,53.60
2018-02-25T19:55:54.469Z,53.80
2018-02-25T19:58:32.281Z,53.20
2018-02-25T20:01:02.215Z,52.40
2018-02-25T20:03:32.246Z,51.50
2018-02-25T20:06:04.010Z,50.50
2018-02-25T20:08:32.990Z,50.60
2018-02-25T20:11:01.014Z,49.70
2018-02-25T20:13:29.939Z,48.80
2018-02-25T20:16:01.949Z,49.80
2018-02-25T20:18:30.806Z,46.90
2018-02-25T20:20:58.825Z,46.90
2018-02-25T20:23:26.856Z,47.30
2018-02-25T20:25:54.866Z,46.80
2018-02-25T20:28:27.499Z,47.80
2018-02-25T20:30:55.546Z,47.80
2018-02-25T20:33:24.453Z,46.90
2018-02-25T20:35:55.593Z,47.70
2018-02-25T20:38:24.617Z,47.30
2018-02-25T20:40:54.402Z,48.50
2018-02-25T20:43:26.581Z,48.50
2018-02-25T20:45:54.602Z,49.10
2018-02-25T20:48:29.938Z,49.70
2018-02-25T20:50:57.955Z,49.30
2018-02-25T20:53:27.170Z,50.80
2018-02-25T20:55:55.941Z,50.50
2018-02-25T20:58:24.910Z,50.50
2018-02-25T21:00:56.678Z,51.10
2018-02-25T21:03:24.698Z,52.30
2018-02-25T21:05:52.722Z,53.00
2018-02-25T21:08:20.739Z,52.40
2018-02-25T21:10:48.774Z,51.80
2018-02-25T21:13:37.245Z,52.40
2018-02-25T21:16:08.049Z,52.50
2018-02-25T21:18:36.070Z,52.60
2018-02-25T21:21:08.142Z,52.20
2018-02-25T21:23:36.974Z,52.20
2018-02-25T21:26:05.982Z,52.40
2018-02-25T21:28:34.770Z,53.10
2018-02-25T21:31:02.813Z,53.10
2018-02-25T21:33:31.794Z,54.00
2018-02-25T21:36:05.754Z,54.30
2018-02-25T21:38:34.541Z,53.60
2018-02-25T21:41:05.230Z,52.80
2018-02-25T21:43:38.929Z,52.70
2018-02-25T21:46:10.688Z,53.30
2018-02-25T21:48:38.702Z,53.60
2018-02-25T21:51:09.497Z,54.50
2018-02-25T21:53:52.290Z,54.40
2018-02-25T21:56:26.113Z,55.40
2018-02-25T21:59:01.870Z,55.50
2018-02-25T22:01:35.458Z,55.10
2018-02-25T22:04:03.454Z,55.80
2018-02-25T22:06:31.462Z,55.70
2018-02-25T22:09:00.389Z,55.20
2018-02-25T22:11:30.311Z,56.10
2018-02-25T22:13:59.218Z,56.00
2018-02-25T22:16:27.237Z,56.10
2018-02-25T22:18:57.201Z,57.00
2018-02-25T22:21:25.222Z,57.60
2018-02-25T22:23:55.135Z,57.20
2018-02-25T22:26:25.058Z,56.80
2018-02-25T22:28:53.070Z,58.00
2018-02-25T22:31:21.986Z,57.30
2018-02-25T22:33:50.057Z,57.40
2018-02-25T22:36:18.833Z,59.40
2018-02-25T22:38:49.541Z,59.50
2018-02-25T22:41:17.561Z,59.50
2018-02-25T22:43:46.489Z,60.60
2018-02-25T22:46:21.133Z,61.60
2018-02-25T22:48:50.129Z,61.60
2018-02-25T22:51:19.169Z,62.40
2018-02-25T22:53:50.910Z,62.00
2018-02-25T22:56:18.941Z,63.10
2018-02-25T22:58:47.917Z,63.00
2018-02-25T23:01:16.917Z,63.50
2018-02-25T23:03:44.933Z,64.20
2018-02-25T23:06:13.897Z,64.50
2018-02-25T23:08:43.884Z,65.50
2018-02-25T23:11:16.569Z,65.60
2018-02-25T23:13:45.130Z,65.90
2018-02-25T23:16:16.409Z,66.80
2018-02-25T23:18:45.397Z,65.70
2018-02-25T23:21:16.541Z,64.70
2018-02-25T23:23:44.565Z,65.90
2018-02-25T23:26:14.526Z,66.20
2018-02-25T23:28:42.557Z,66.80
2018-02-25T23:31:10.579Z,67.40
2018-02-25T23:33:46.405Z,68.40
2018-02-25T23:36:15.435Z,68.60
2018-02-25T23:38:44.217Z,69.40
2018-02-25T23:41:13.001Z,69.10
2018-02-25T23:43:41.792Z,68.80
2018-02-25T23:46:11.601Z,69.10
2018-02-25T23:48:42.309Z,70.10
2018-02-25T23:51:10.341Z,70.10
2018-02-25T23:53:43.776Z,70.20
2018-02-25T23:56:16.105Z,70.80
2018-02-25T23:58:45.053Z,71.30
